createdAt,value
2017-12-08T00:00:22.255Z,20.54
2017-12-08T00:00:50.378Z,20.6
2017-12-08T00:01:18.562Z,20.56
2017-12-08T00:01:46.656Z,20.64
2017-12-08T00:02:14.878Z,20.58
2017-12-08T00:02:43.001Z,20.54
2017-12-08T00:03:11.118Z,20.61
2017-12-08T00:03:39.307Z,20.63
2017-12-08T00:04:07.514Z,20.64
2017-12-08T00:04:35.777Z,20.56
2017-12-08T00:05:03.704Z,20.63
2017-12-08T00:05:31.804Z,20.58
2017-12-08T00:05:59.842Z,20.54
2017-12-08T00:06:27.755Z,20.6
2017-12-08T00:06:55.806Z,20.54
2017-12-08T00:07:23.718Z,20.66
2017-12-08T00:07:51.825Z,20.61
2017-12-08T00:08:19.967Z,20.68
2017-12-08T00:08:48.075Z,20.71
2017-12-08T00:09:16.285Z,20.67
2017-12-08T00:09:44.513Z,20.67
2017-12-08T00:10:12.726Z,20.66
2017-12-08T00:10:40.912Z,20.71
2017-12-08T00:11:09.012Z,20.6
2017-12-08T00:11:37.032Z,20.6
2017-12-08T00:12:05.069Z,20.63
2017-12-08T00:12:33.170Z,20.61
2017-12-08T00:13:01.384Z,20.54
2017-12-08T00:13:29.601Z,20.63
2017-12-08T00:13:57.637Z,20.57
2017-12-08T00:14:25.517Z,20.61
2017-12-08T00:14:53.834Z,20.58
2017-12-08T00:15:21.921Z,20.57
2017-12-08T00:15:50.041Z,20.48
2017-12-08T00:16:18.256Z,20.44
2017-12-08T00:16:46.430Z,20.49
2017-12-08T00:17:14.649Z,20.4
2017-12-08T00:17:42.627Z,20.49
2017-12-08T00:18:10.761Z,20.58
2017-12-08T00:18:38.959Z,20.46
2017-12-08T00:19:06.959Z,20.46
2017-12-08T00:19:35.194Z,20.46
2017-12-08T00:20:03.259Z,20.46
2017-12-08T00:20:31.323Z,20.49
2017-12-08T00:20:59.545Z,20.49
2017-12-08T00:21:27.547Z,20.53
2017-12-08T00:21:55.442Z,20.48
2017-12-08T00:22:23.527Z,20.48
2017-12-08T00:22:51.566Z,20.53
2017-12-08T00:23:19.786Z,20.44
2017-12-08T00:23:47.826Z,20.42
2017-12-08T00:24:16.086Z,20.56
2017-12-08T00:24:44.274Z,20.48
2017-12-08T00:25:12.522Z,20.42
2017-12-08T00:25:40.728Z,20.44
2017-12-08T00:26:08.955Z,20.48
2017-12-08T00:26:37.106Z,20.44
2017-12-08T00:27:05.230Z,20.51
2017-12-08T00:27:33.216Z,20.46
2017-12-08T00:28:01.433Z,20.48
2017-12-08T00:28:29.646Z,20.48
2017-12-08T00:28:57.807Z,20.44
2017-12-08T00:29:25.926Z,20.37
2017-12-08T00:29:54.150Z,20.48
2017-12-08T00:30:22.140Z,20.44
2017-12-08T00:30:50.253Z,20.46
2017-12-08T00:31:18.241Z,20.49
2017-12-08T00:31:46.238Z,20.34
2017-12-08T00:32:14.271Z,20.41
2017-12-08T00:32:42.295Z,20.37
2017-12-08T00:33:10.403Z,20.35
2017-12-08T00:33:38.539Z,20.37
2017-12-08T00:34:06.771Z,20.38
2017-12-08T00:34:34.948Z,20.4
2017-12-08T00:35:03.196Z,20.38
2017-12-08T00:35:31.358Z,20.3
2017-12-08T00:35:59.476Z,20.32
2017-12-08T00:36:27.608Z,20.34
2017-12-08T00:36:55.735Z,20.42
2017-12-08T00:37:23.969Z,20.32
2017-12-08T00:37:52.210Z,20.41
2017-12-08T00:38:20.216Z,20.34
2017-12-08T00:38:48.394Z,20.41
2017-12-08T00:39:16.508Z,20.35
2017-12-08T00:39:44.719Z,20.3
2017-12-08T00:40:13.023Z,20.34
2017-12-08T00:40:41.148Z,20.4
2017-12-08T00:41:09.285Z,20.3
2017-12-08T00:41:37.510Z,20.34
2017-12-08T00:42:05.512Z,20.3
2017-12-08T00:42:33.732Z,20.34
2017-12-08T00:43:01.848Z,20.41
2017-12-08T00:43:30.074Z,20.35
2017-12-08T00:43:58.176Z,20.37
2017-12-08T00:44:26.279Z,20.34
2017-12-08T00:44:54.655Z,20.37
2017-12-08T00:45:22.623Z,20.29
2017-12-08T00:45:50.653Z,20.29
2017-12-08T00:46:18.656Z,20.26
2017-12-08T00:46:46.696Z,20.26
2017-12-08T00:47:14.794Z,20.27
2017-12-08T00:47:42.917Z,20.25
2017-12-08T00:48:11.056Z,20.32
2017-12-08T00:48:39.192Z,20.34
2017-12-08T00:49:07.242Z,20.32
2017-12-08T00:49:35.458Z,20.27
2017-12-08T00:50:03.696Z,20.37
2017-12-08T00:50:31.848Z,20.25
2017-12-08T00:50:59.933Z,20.25
2017-12-08T00:51:28.089Z,20.34
2017-12-08T00:51:56.289Z,20.34
2017-12-08T00:52:24.510Z,20.25
2017-12-08T00:52:52.609Z,20.3
2017-12-08T00:53:20.701Z,20.38
2017-12-08T00:53:48.808Z,20.29
2017-12-08T00:54:16.877Z,20.29
2017-12-08T00:54:44.898Z,20.23
2017-12-08T00:55:13.268Z,20.4
2017-12-08T00:55:41.361Z,20.37
2017-12-08T00:56:09.571Z,20.3
2017-12-08T00:56:37.611Z,20.37
2017-12-08T00:57:05.841Z,20.34
2017-12-08T00:57:33.950Z,20.37
2017-12-08T00:58:01.933Z,20.37
2017-12-08T00:58:30.041Z,20.34
2017-12-08T00:58:58.057Z,20.35
2017-12-08T00:59:25.919Z,20.34
2017-12-08T00:59:53.788Z,20.32
2017-12-08T01:00:22.077Z,20.4
2017-12-08T01:00:50.189Z,20.27
2017-12-08T01:01:18.436Z,20.32
2017-12-08T01:01:46.519Z,20.3
2017-12-08T01:02:14.627Z,20.35
2017-12-08T01:02:42.606Z,20.38
2017-12-08T01:03:10.816Z,20.34
2017-12-08T01:03:39.044Z,20.34
2017-12-08T01:04:07.133Z,20.38
2017-12-08T01:04:35.335Z,20.38
2017-12-08T01:05:03.524Z,20.34
2017-12-08T01:05:31.758Z,20.4
2017-12-08T01:05:59.948Z,20.4
2017-12-08T01:06:27.877Z,20.32
2017-12-08T01:06:55.974Z,20.32
2017-12-08T01:07:24.165Z,20.37
2017-12-08T01:07:52.270Z,20.42
2017-12-08T01:08:20.372Z,20.34
2017-12-08T01:08:48.582Z,20.48
2017-12-08T01:09:16.702Z,20.46
2017-12-08T01:09:44.792Z,20.34
2017-12-08T01:10:13.101Z,20.32
2017-12-08T01:10:41.199Z,20.48
2017-12-08T01:11:09.346Z,20.42
2017-12-08T01:11:37.527Z,20.46
2017-12-08T01:12:05.704Z,20.49
2017-12-08T01:12:33.727Z,20.41
2017-12-08T01:13:01.734Z,20.46
2017-12-08T01:13:29.974Z,20.46
2017-12-08T01:13:58.120Z,20.44
2017-12-08T01:14:26.194Z,20.46
2017-12-08T01:14:54.173Z,20.48
2017-12-08T01:15:22.405Z,20.42
2017-12-08T01:15:50.490Z,20.53
2017-12-08T01:16:18.630Z,20.42
2017-12-08T01:16:46.741Z,20.49
2017-12-08T01:17:14.743Z,20.44
2017-12-08T01:17:42.736Z,20.54
2017-12-08T01:18:10.890Z,20.46
2017-12-08T01:18:39.094Z,20.53
2017-12-08T01:19:07.075Z,20.51
2017-12-08T01:19:35.171Z,20.49
2017-12-08T01:20:03.286Z,20.63
2017-12-08T01:20:31.586Z,20.58
2017-12-08T01:20:59.693Z,20.57
2017-12-08T01:21:27.705Z,20.63
2017-12-08T01:21:55.732Z,20.57
2017-12-08T01:22:23.697Z,20.6
2017-12-08T01:22:51.944Z,20.56
2017-12-08T01:23:20.075Z,20.53
2017-12-08T01:23:48.231Z,20.56
2017-12-08T01:24:16.024Z,20.6
2017-12-08T01:24:44.101Z,20.61
2017-12-08T01:25:12.320Z,20.6
2017-12-08T01:25:40.622Z,20.58
2017-12-08T01:26:08.846Z,20.57
2017-12-08T01:26:36.965Z,20.56
2017-12-08T01:27:05.184Z,20.54
2017-12-08T01:27:33.370Z,20.58
2017-12-08T01:28:01.481Z,20.57
2017-12-08T01:28:29.527Z,20.6
2017-12-08T01:28:57.665Z,20.66
2017-12-08T01:29:25.780Z,20.56
2017-12-08T01:29:53.894Z,20.58
2017-12-08T01:30:22.080Z,20.54
2017-12-08T01:30:50.311Z,20.56
2017-12-08T01:31:18.529Z,20.54
2017-12-08T01:31:46.733Z,20.58
2017-12-08T01:32:14.853Z,20.54
2017-12-08T01:32:42.929Z,20.56
2017-12-08T01:33:11.156Z,20.56
2017-12-08T01:33:39.231Z,20.63
2017-12-08T01:34:07.227Z,20.58
2017-12-08T01:34:35.410Z,20.56
2017-12-08T01:35:03.643Z,20.6
2017-12-08T01:35:31.952Z,20.58
2017-12-08T01:36:00.088Z,20.57
2017-12-08T01:36:28.293Z,20.49
2017-12-08T01:36:56.301Z,20.51
2017-12-08T01:37:24.516Z,20.54
2017-12-08T01:37:52.518Z,20.57
2017-12-08T01:38:20.632Z,20.49
2017-12-08T01:38:48.690Z,20.57
2017-12-08T01:39:16.907Z,20.46
2017-12-08T01:39:44.853Z,20.42
2017-12-08T01:40:12.864Z,20.48
2017-12-08T01:40:41.082Z,20.54
2017-12-08T01:41:09.274Z,20.51
2017-12-08T01:41:37.366Z,20.57
2017-12-08T01:42:05.525Z,20.54
2017-12-08T01:42:33.719Z,20.53
2017-12-08T01:43:01.914Z,20.51
2017-12-08T01:43:30.035Z,20.56
2017-12-08T01:43:57.923Z,20.54
2017-12-08T01:44:25.939Z,20.56
2017-12-08T01:44:53.963Z,20.46
2017-12-08T01:45:22.062Z,20.48
2017-12-08T01:45:50.395Z,20.53
2017-12-08T01:46:18.498Z,20.54
2017-12-08T01:46:46.488Z,20.58
2017-12-08T01:47:14.595Z,20.53
2017-12-08T01:47:42.559Z,20.58
2017-12-08T01:48:10.656Z,20.61
2017-12-08T01:48:38.892Z,20.63
2017-12-08T01:49:06.909Z,20.54
2017-12-08T01:49:34.936Z,20.6
2017-12-08T01:50:02.894Z,20.56
2017-12-08T01:50:30.923Z,20.57
2017-12-08T01:50:59.192Z,20.6
2017-12-08T01:51:27.448Z,20.6
2017-12-08T01:51:55.347Z,20.57
2017-12-08T01:52:23.547Z,20.57
2017-12-08T01:52:51.749Z,20.53
2017-12-08T01:53:19.969Z,20.57
2017-12-08T01:53:48.116Z,20.61
2017-12-08T01:54:16.207Z,20.58
2017-12-08T01:54:44.309Z,20.6
2017-12-08T01:55:12.466Z,20.61
2017-12-08T01:55:40.559Z,20.58
2017-12-08T01:56:08.746Z,20.58
2017-12-08T01:56:36.984Z,20.58
2017-12-08T01:57:05.085Z,20.54
2017-12-08T01:57:33.096Z,20.57
2017-12-08T01:58:01.281Z,20.57
2017-12-08T01:58:29.435Z,20.56
2017-12-08T01:58:57.513Z,20.57
2017-12-08T01:59:25.755Z,20.57
2017-12-08T01:59:53.859Z,20.57
2017-12-08T02:00:21.979Z,20.61
2017-12-08T02:00:50.230Z,20.57
2017-12-08T02:01:18.410Z,20.58
2017-12-08T02:01:46.629Z,20.6
2017-12-08T02:02:14.618Z,20.57
2017-12-08T02:02:42.763Z,20.58
2017-12-08T02:03:10.978Z,20.63
2017-12-08T02:03:39.069Z,20.58
2017-12-08T02:04:07.167Z,20.54
2017-12-08T02:04:35.161Z,20.57
2017-12-08T02:05:03.154Z,20.58
2017-12-08T02:05:31.295Z,20.58
2017-12-08T02:05:59.432Z,20.57
2017-12-08T02:06:27.607Z,20.54
2017-12-08T02:06:55.791Z,20.57
2017-12-08T02:07:23.951Z,20.58
2017-12-08T02:07:51.764Z,20.6
2017-12-08T02:08:19.975Z,20.58
2017-12-08T02:08:48.131Z,20.61
2017-12-08T02:09:16.231Z,20.57
2017-12-08T02:09:44.412Z,20.6
2017-12-08T02:10:12.447Z,20.63
2017-12-08T02:10:40.659Z,20.6
2017-12-08T02:11:08.974Z,20.6
2017-12-08T02:11:37.006Z,20.63
2017-12-08T02:12:05.132Z,20.6
2017-12-08T02:12:33.316Z,20.61
2017-12-08T02:13:01.524Z,20.58
2017-12-08T02:13:29.596Z,20.61
2017-12-08T02:13:57.808Z,20.6
2017-12-08T02:14:25.901Z,20.57
2017-12-08T02:14:54.159Z,20.61
2017-12-08T02:15:22.271Z,20.61
2017-12-08T02:15:50.386Z,20.56
2017-12-08T02:16:18.514Z,20.66
2017-12-08T02:16:46.514Z,20.54
2017-12-08T02:17:14.713Z,20.6
2017-12-08T02:17:42.706Z,20.53
2017-12-08T02:18:10.814Z,20.48
2017-12-08T02:18:38.830Z,20.54
2017-12-08T02:19:07.024Z,20.46
2017-12-08T02:19:35.059Z,20.42
2017-12-08T02:20:03.301Z,20.35
2017-12-08T02:20:31.303Z,20.46
2017-12-08T02:20:59.294Z,20.35
2017-12-08T02:21:27.619Z,20.34
2017-12-08T02:21:55.746Z,20.27
2017-12-08T02:22:23.764Z,20.29
2017-12-08T02:22:52.006Z,20.23
2017-12-08T02:23:19.996Z,20.12
2017-12-08T02:23:48.116Z,20.18
2017-12-08T02:24:16.247Z,20.19
2017-12-08T02:24:44.268Z,20.16
2017-12-08T02:25:12.374Z,20.04
2017-12-08T02:25:40.509Z,20.16
2017-12-08T02:26:08.772Z,20.12
2017-12-08T02:26:37.013Z,20.04
2017-12-08T02:27:05.092Z,20.05
2017-12-08T02:27:33.293Z,20.04
2017-12-08T02:28:01.397Z,20.04
2017-12-08T02:28:29.584Z,20.08
2017-12-08T02:28:57.596Z,20.1
2017-12-08T02:29:25.723Z,20.02
2017-12-08T02:29:53.826Z,19.98
2017-12-08T02:30:22.052Z,20.05
2017-12-08T02:30:50.236Z,20.05
2017-12-08T02:31:18.554Z,19.98
2017-12-08T02:31:46.560Z,20.12
2017-12-08T02:32:14.779Z,20.07
2017-12-08T02:32:42.978Z,20.04
2017-12-08T02:33:11.171Z,20.08
2017-12-08T02:33:39.270Z,20.08
2017-12-08T02:34:07.494Z,20.08
2017-12-08T02:34:35.610Z,20.1
2017-12-08T02:35:03.831Z,20.11
2017-12-08T02:35:32.057Z,20.1
2017-12-08T02:35:59.938Z,20.15
2017-12-08T02:36:28.193Z,20.11
2017-12-08T02:36:56.398Z,20.15
2017-12-08T02:37:24.436Z,20.1
2017-12-08T02:37:52.543Z,20.1
2017-12-08T02:38:20.781Z,20.07
2017-12-08T02:38:48.883Z,20.07
2017-12-08T02:39:16.970Z,20.12
2017-12-08T02:39:45.300Z,20.15
2017-12-08T02:40:13.404Z,20.18
2017-12-08T02:40:41.380Z,20.19
2017-12-08T02:41:09.613Z,20.16
2017-12-08T02:41:37.996Z,20.15
2017-12-08T02:42:06.040Z,20.18
2017-12-08T02:42:34.198Z,20.18
2017-12-08T02:43:02.190Z,20.22
2017-12-08T02:43:30.396Z,20.16
2017-12-08T02:43:58.491Z,20.12
2017-12-08T02:44:26.676Z,20.08
2017-12-08T02:44:54.851Z,20.18
2017-12-08T02:45:23.447Z,20.16
2017-12-08T02:45:51.644Z,20.16
2017-12-08T02:46:19.793Z,20.16
2017-12-08T02:46:47.936Z,20.12
2017-12-08T02:47:15.975Z,20.11
2017-12-08T02:47:44.009Z,20.15
2017-12-08T02:48:12.203Z,20.12
2017-12-08T02:48:40.332Z,20.11
2017-12-08T02:49:08.459Z,20.2
2017-12-08T02:49:36.661Z,20.1
2017-12-08T02:50:04.782Z,20.12
2017-12-08T02:50:32.984Z,20.04
2017-12-08T02:51:01.087Z,20.08
2017-12-08T02:51:29.250Z,20.02
2017-12-08T02:51:57.240Z,20.07
2017-12-08T02:52:25.275Z,20.08
2017-12-08T02:52:53.402Z,20.05
2017-12-08T02:53:21.461Z,20.07
2017-12-08T02:53:49.669Z,20.11
2017-12-08T02:54:17.767Z,20.08
2017-12-08T02:54:45.866Z,20.12
2017-12-08T02:55:13.944Z,20.08
2017-12-08T02:55:42.148Z,20.15
2017-12-08T02:56:10.305Z,20.05
2017-12-08T02:56:38.579Z,20.15
2017-12-08T02:57:06.758Z,20.11
2017-12-08T02:57:34.973Z,20.1
2017-12-08T02:58:03.113Z,20.15
2017-12-08T02:58:31.286Z,20.07
2017-12-08T02:58:59.417Z,20.12
2017-12-08T02:59:27.636Z,20.07
2017-12-08T02:59:55.637Z,20.12
2017-12-08T03:00:23.752Z,20.07
2017-12-08T03:00:51.855Z,20.12
2017-12-08T03:01:19.945Z,20.16
2017-12-08T03:01:48.263Z,20.18
2017-12-08T03:02:16.274Z,20.15
2017-12-08T03:02:44.474Z,20.15
2017-12-08T03:03:12.592Z,20.19
2017-12-08T03:03:40.563Z,20.19
2017-12-08T03:04:08.528Z,20.2
2017-12-08T03:04:36.659Z,20.2
2017-12-08T03:05:04.736Z,20.19
2017-12-08T03:05:32.967Z,20.18
2017-12-08T03:06:01.108Z,20.16
2017-12-08T03:06:29.350Z,20.12
2017-12-08T03:06:57.661Z,20.26
2017-12-08T03:07:25.734Z,20.19
2017-12-08T03:07:53.740Z,20.18
2017-12-08T03:08:21.955Z,20.16
2017-12-08T03:08:50.053Z,20.16
2017-12-08T03:09:18.255Z,20.18
2017-12-08T03:09:46.337Z,20.15
2017-12-08T03:10:14.569Z,20.15
2017-12-08T03:10:42.758Z,20.18
2017-12-08T03:11:10.864Z,20.15
2017-12-08T03:11:39.098Z,20.18
2017-12-08T03:12:07.346Z,20.12
2017-12-08T03:12:35.509Z,20.1
2017-12-08T03:13:03.745Z,20.08
2017-12-08T03:13:31.835Z,20.05
2017-12-08T03:14:00.016Z,20.1
2017-12-08T03:14:28.182Z,20.05
2017-12-08T03:14:56.443Z,20
2017-12-08T03:15:24.625Z,20.02
2017-12-08T03:15:52.751Z,20
2017-12-08T03:16:20.840Z,20.04
2017-12-08T03:16:49.200Z,20.08
2017-12-08T03:17:17.262Z,20.01
2017-12-08T03:17:45.274Z,19.98
2017-12-08T03:18:13.468Z,19.92
2017-12-08T03:18:41.644Z,19.9
2017-12-08T03:19:09.752Z,19.95
2017-12-08T03:19:37.767Z,19.89
2017-12-08T03:20:05.658Z,19.85
2017-12-08T03:20:33.909Z,19.86
2017-12-08T03:21:01.902Z,19.82
2017-12-08T03:21:30.013Z,19.86
2017-12-08T03:21:58.261Z,19.79
2017-12-08T03:22:26.472Z,19.8
2017-12-08T03:22:54.613Z,19.86
2017-12-08T03:23:22.740Z,19.82
2017-12-08T03:23:50.759Z,19.82
2017-12-08T03:24:18.737Z,19.86
2017-12-08T03:24:46.761Z,19.82
2017-12-08T03:25:14.919Z,19.8
2017-12-08T03:25:42.910Z,19.8
2017-12-08T03:26:10.960Z,19.74
2017-12-08T03:26:39.073Z,19.72
2017-12-08T03:27:07.267Z,19.72
2017-12-08T03:27:35.395Z,19.7
2017-12-08T03:28:03.471Z,19.74
2017-12-08T03:28:31.613Z,19.75
2017-12-08T03:28:59.719Z,19.72
2017-12-08T03:29:27.728Z,19.72
2017-12-08T03:29:55.884Z,19.75
2017-12-08T03:30:24.111Z,19.82
2017-12-08T03:30:52.212Z,19.74
2017-12-08T03:31:20.245Z,19.79
2017-12-08T03:31:48.303Z,19.71
2017-12-08T03:32:16.664Z,19.72
2017-12-08T03:32:44.663Z,19.7
2017-12-08T03:33:12.861Z,19.75
2017-12-08T03:33:41.115Z,19.74
2017-12-08T03:34:09.210Z,19.75
2017-12-08T03:34:37.286Z,19.71
2017-12-08T03:35:05.191Z,19.7
2017-12-08T03:35:33.324Z,19.74
2017-12-08T03:36:01.530Z,19.75
2017-12-08T03:36:29.514Z,19.68
2017-12-08T03:36:57.692Z,19.72
2017-12-08T03:37:26.110Z,19.74
2017-12-08T03:37:54.313Z,19.74
2017-12-08T03:38:22.511Z,19.71
2017-12-08T03:38:50.650Z,19.79
2017-12-08T03:39:18.848Z,19.82
2017-12-08T03:39:46.764Z,19.7
2017-12-08T03:40:14.872Z,19.75
2017-12-08T03:40:42.864Z,19.75
2017-12-08T03:41:10.842Z,19.74
2017-12-08T03:41:38.926Z,19.75
2017-12-08T03:42:07.279Z,19.75
2017-12-08T03:42:35.372Z,19.75
2017-12-08T03:43:03.369Z,19.71
2017-12-08T03:43:31.372Z,19.75
2017-12-08T03:43:59.608Z,19.71
2017-12-08T03:44:27.775Z,19.72
2017-12-08T03:44:55.807Z,19.71
2017-12-08T03:45:23.863Z,19.72
2017-12-08T03:45:51.983Z,19.75
2017-12-08T03:46:19.916Z,19.72
2017-12-08T03:46:48.105Z,19.78
2017-12-08T03:47:16.338Z,19.7
2017-12-08T03:47:44.567Z,19.74
2017-12-08T03:48:12.800Z,19.74
2017-12-08T03:48:40.869Z,19.67
2017-12-08T03:49:08.945Z,19.78
2017-12-08T03:49:37.180Z,19.72
2017-12-08T03:50:05.272Z,19.74
2017-12-08T03:50:33.501Z,19.7
2017-12-08T03:51:01.528Z,19.68
2017-12-08T03:51:29.741Z,19.67
2017-12-08T03:51:57.904Z,19.71
2017-12-08T03:52:26.302Z,19.72
2017-12-08T03:52:54.496Z,19.72
2017-12-08T03:53:22.664Z,19.67
2017-12-08T03:53:50.675Z,19.64
2017-12-08T03:54:18.863Z,19.65
2017-12-08T03:54:47.061Z,19.61
2017-12-08T03:55:15.297Z,19.7
2017-12-08T03:55:43.511Z,19.72
2017-12-08T03:56:11.744Z,19.72
2017-12-08T03:56:39.903Z,19.78
2017-12-08T03:57:08.120Z,19.64
2017-12-08T03:57:36.464Z,19.72
2017-12-08T03:58:04.628Z,19.8
2017-12-08T03:58:32.605Z,19.7
2017-12-08T03:59:00.730Z,19.67
2017-12-08T03:59:28.909Z,19.78
2017-12-08T03:59:57.028Z,19.7
2017-12-08T04:00:25.156Z,19.7
2017-12-08T04:00:53.245Z,19.65
2017-12-08T04:01:21.464Z,19.65
2017-12-08T04:01:49.683Z,19.64
2017-12-08T04:02:17.704Z,19.65
2017-12-08T04:02:45.963Z,19.65
2017-12-08T04:03:14.165Z,19.64
2017-12-08T04:03:42.304Z,19.7
2017-12-08T04:04:10.528Z,19.67
2017-12-08T04:04:38.730Z,19.71
2017-12-08T04:05:06.942Z,19.65
2017-12-08T04:05:34.838Z,19.71
2017-12-08T04:06:02.816Z,19.7
2017-12-08T04:06:30.859Z,19.8
2017-12-08T04:06:58.995Z,19.72
2017-12-08T04:07:27.311Z,19.65
2017-12-08T04:07:55.308Z,19.64
2017-12-08T04:08:23.329Z,19.67
2017-12-08T04:08:51.291Z,19.64
2017-12-08T04:09:19.326Z,19.71
2017-12-08T04:09:47.520Z,19.68
2017-12-08T04:10:15.646Z,19.63
2017-12-08T04:10:43.824Z,19.63
2017-12-08T04:11:11.869Z,19.67
2017-12-08T04:11:40.094Z,19.56
2017-12-08T04:12:08.226Z,19.64
2017-12-08T04:12:36.431Z,19.63
2017-12-08T04:13:04.572Z,19.65
2017-12-08T04:13:32.680Z,19.63
2017-12-08T04:14:00.795Z,19.64
2017-12-08T04:14:28.966Z,19.64
2017-12-08T04:14:57.097Z,19.64
2017-12-08T04:15:25.211Z,19.57
2017-12-08T04:15:53.010Z,19.61
2017-12-08T04:16:21.073Z,19.64
2017-12-08T04:16:49.287Z,19.67
2017-12-08T04:17:17.409Z,19.61
2017-12-08T04:17:45.596Z,19.57
2017-12-08T04:18:13.789Z,19.63
2017-12-08T04:18:42.024Z,19.61
2017-12-08T04:19:10.187Z,19.63
2017-12-08T04:19:38.301Z,19.63
2017-12-08T04:20:06.310Z,19.56
2017-12-08T04:20:34.436Z,19.68
2017-12-08T04:21:02.638Z,19.65
2017-12-08T04:21:30.756Z,19.65
2017-12-08T04:21:58.592Z,19.61
2017-12-08T04:22:26.567Z,19.65
2017-12-08T04:22:54.898Z,19.57
2017-12-08T04:23:22.964Z,19.61
2017-12-08T04:23:51.102Z,19.63
2017-12-08T04:24:19.207Z,19.64
2017-12-08T04:24:47.362Z,19.67
2017-12-08T04:25:15.373Z,19.64
2017-12-08T04:25:43.561Z,19.7
2017-12-08T04:26:11.795Z,19.6
2017-12-08T04:26:39.991Z,19.65
2017-12-08T04:27:08.141Z,19.67
2017-12-08T04:27:36.228Z,19.7
2017-12-08T04:28:04.483Z,19.75
2017-12-08T04:28:32.508Z,19.79
2017-12-08T04:29:00.615Z,19.74
2017-12-08T04:29:28.851Z,19.8
2017-12-08T04:29:56.942Z,19.75
2017-12-08T04:30:25.071Z,19.72
2017-12-08T04:30:53.158Z,19.71
2017-12-08T04:31:21.326Z,19.72
2017-12-08T04:31:49.314Z,19.74
2017-12-08T04:32:17.437Z,19.71
2017-12-08T04:32:45.564Z,19.8
2017-12-08T04:33:13.700Z,19.75
2017-12-08T04:33:41.697Z,19.74
2017-12-08T04:34:09.787Z,19.75
2017-12-08T04:34:37.882Z,19.75
2017-12-08T04:35:05.762Z,19.71
2017-12-08T04:35:33.939Z,19.72
2017-12-08T04:36:02.198Z,19.74
2017-12-08T04:36:30.205Z,19.8
2017-12-08T04:36:58.385Z,19.85
2017-12-08T04:37:26.614Z,19.78
2017-12-08T04:37:54.885Z,19.83
2017-12-08T04:38:23.013Z,19.92
2017-12-08T04:38:51.172Z,19.9
2017-12-08T04:39:19.395Z,19.85
2017-12-08T04:39:47.513Z,19.93
2017-12-08T04:40:15.721Z,19.93
2017-12-08T04:40:43.779Z,19.97
2017-12-08T04:41:12.036Z,20.02
2017-12-08T04:41:40.161Z,19.95
2017-12-08T04:42:08.408Z,20
2017-12-08T04:42:36.398Z,20
2017-12-08T04:43:04.747Z,20
2017-12-08T04:43:32.947Z,20
2017-12-08T04:44:01.046Z,20.04
2017-12-08T04:44:29.144Z,20.01
2017-12-08T04:44:57.336Z,20
2017-12-08T04:45:25.342Z,19.97
2017-12-08T04:45:53.446Z,20
2017-12-08T04:46:21.658Z,19.93
2017-12-08T04:46:49.802Z,20
2017-12-08T04:47:17.979Z,20
2017-12-08T04:47:46.079Z,19.98
2017-12-08T04:48:14.100Z,19.97
2017-12-08T04:48:42.289Z,19.98
2017-12-08T04:49:10.493Z,19.92
2017-12-08T04:49:38.691Z,20
2017-12-08T04:50:06.792Z,19.98
2017-12-08T04:50:34.927Z,20
2017-12-08T04:51:02.948Z,20.04
2017-12-08T04:51:31.053Z,20.05
2017-12-08T04:51:59.187Z,20.05
2017-12-08T04:52:27.397Z,19.97
2017-12-08T04:52:55.594Z,20.08
2017-12-08T04:53:23.965Z,20.08
2017-12-08T04:53:52.071Z,20.11
2017-12-08T04:54:19.978Z,20.16
2017-12-08T04:54:47.983Z,20.05
2017-12-08T04:55:16.217Z,20.12
2017-12-08T04:55:44.419Z,20.11
2017-12-08T04:56:12.454Z,20.16
2017-12-08T04:56:40.599Z,20.1
2017-12-08T04:57:08.775Z,20.19
2017-12-08T04:57:37.074Z,20.12
2017-12-08T04:58:05.268Z,20.08
2017-12-08T04:58:33.485Z,20.07
2017-12-08T04:59:01.676Z,20.11
2017-12-08T04:59:29.759Z,20.19
2017-12-08T04:59:57.768Z,20.1
2017-12-08T05:00:25.887Z,20.08
2017-12-08T05:00:54.099Z,20.12
2017-12-08T05:01:22.334Z,20.22
2017-12-08T05:01:50.555Z,20.19
2017-12-08T05:02:18.775Z,20.08
2017-12-08T05:02:46.932Z,20.18
2017-12-08T05:03:15.853Z,20.1
2017-12-08T05:03:43.952Z,20.11
2017-12-08T05:04:12.052Z,20.15
2017-12-08T05:04:40.236Z,20.19
2017-12-08T05:05:08.463Z,20.16
2017-12-08T05:05:36.459Z,20.18
2017-12-08T05:06:04.616Z,20.19
2017-12-08T05:06:32.743Z,20.18
2017-12-08T05:07:00.841Z,20.19
2017-12-08T05:07:29.036Z,20.16
2017-12-08T05:07:56.933Z,20.19
2017-12-08T05:08:25.170Z,20.19
2017-12-08T05:08:53.272Z,20.18
2017-12-08T05:09:21.390Z,20.19
2017-12-08T05:09:49.585Z,20.12
2017-12-08T05:10:17.698Z,20.12
2017-12-08T05:10:45.805Z,20.25
2017-12-08T05:11:13.822Z,20.2
2017-12-08T05:11:41.900Z,20.12
2017-12-08T05:12:10.100Z,20.23
2017-12-08T05:12:38.184Z,20.12
2017-12-08T05:13:06.187Z,20.16
2017-12-08T05:13:34.603Z,20.16
2017-12-08T05:14:02.815Z,20.16
2017-12-08T05:14:30.918Z,20.1
2017-12-08T05:14:59.003Z,20.19
2017-12-08T05:15:26.924Z,20.18
2017-12-08T05:15:54.913Z,20.19
2017-12-08T05:16:23.077Z,20.15
2017-12-08T05:16:51.151Z,20.18
2017-12-08T05:17:19.280Z,20.18
2017-12-08T05:17:47.289Z,20.15
2017-12-08T05:18:15.541Z,20.23
2017-12-08T05:18:43.734Z,20.18
2017-12-08T05:19:11.861Z,20.22
2017-12-08T05:19:40.117Z,20.22
2017-12-08T05:20:08.221Z,20.26
2017-12-08T05:20:36.320Z,20.19
2017-12-08T05:21:04.423Z,20.23
2017-12-08T05:21:32.622Z,20.22
2017-12-08T05:22:00.686Z,20.25
2017-12-08T05:22:28.879Z,20.19
2017-12-08T05:22:56.964Z,20.26
2017-12-08T05:23:25.115Z,20.25
2017-12-08T05:23:53.219Z,20.22
2017-12-08T05:24:21.324Z,20.23
2017-12-08T05:24:49.218Z,20.23
2017-12-08T05:25:17.369Z,20.22
2017-12-08T05:25:45.469Z,20.23
2017-12-08T05:26:13.477Z,20.22
2017-12-08T05:26:41.480Z,20.2
2017-12-08T05:27:09.570Z,20.16
2017-12-08T05:27:37.728Z,20.19
2017-12-08T05:28:05.847Z,20.12
2017-12-08T05:28:34.097Z,20.22
2017-12-08T05:29:02.087Z,20.25
2017-12-08T05:29:30.194Z,20.22
2017-12-08T05:29:58.317Z,20.23
2017-12-08T05:30:26.301Z,20.19
2017-12-08T05:30:54.276Z,20.12
2017-12-08T05:31:22.271Z,20.26
2017-12-08T05:31:50.328Z,20.22
2017-12-08T05:32:18.320Z,20.23
2017-12-08T05:32:46.572Z,20.23
2017-12-08T05:33:14.780Z,20.18
2017-12-08T05:33:43.100Z,20.16
2017-12-08T05:34:11.160Z,20.26
2017-12-08T05:34:39.275Z,20.22
2017-12-08T05:35:07.537Z,20.18
2017-12-08T05:35:35.786Z,20.19
2017-12-08T05:36:03.906Z,20.18
2017-12-08T05:36:31.996Z,20.26
2017-12-08T05:37:00.196Z,20.19
2017-12-08T05:37:28.045Z,20.25
2017-12-08T05:37:56.081Z,20.25
2017-12-08T05:38:24.205Z,20.18
2017-12-08T05:38:52.480Z,20.22
2017-12-08T05:39:20.586Z,20.25
2017-12-08T05:39:48.687Z,20.25
2017-12-08T05:40:16.894Z,20.18
2017-12-08T05:40:44.895Z,20.19
2017-12-08T05:41:13.030Z,20.23
2017-12-08T05:41:41.234Z,20.23
2017-12-08T05:42:09.348Z,20.12
2017-12-08T05:42:37.428Z,20.16
2017-12-08T05:43:05.361Z,20.25
2017-12-08T05:43:33.602Z,20.19
2017-12-08T05:44:01.682Z,20.23
2017-12-08T05:44:29.920Z,20.23
2017-12-08T05:44:58.024Z,20.19
2017-12-08T05:45:26.252Z,20.2
2017-12-08T05:45:54.436Z,20.11
2017-12-08T05:46:22.646Z,20.22
2017-12-08T05:46:50.847Z,20.19
2017-12-08T05:47:19.097Z,20.16
2017-12-08T05:47:47.296Z,20.18
2017-12-08T05:48:15.371Z,20.15
2017-12-08T05:48:43.612Z,20.12
2017-12-08T05:49:11.700Z,20.2
2017-12-08T05:49:39.652Z,20.18
2017-12-08T05:50:07.691Z,20.18
2017-12-08T05:50:35.770Z,20.12
2017-12-08T05:51:03.973Z,20.12
2017-12-08T05:51:32.125Z,20.1
2017-12-08T05:52:00.319Z,20.1
2017-12-08T05:52:28.316Z,20.11
2017-12-08T05:52:56.404Z,20.16
2017-12-08T05:53:24.432Z,20.11
2017-12-08T05:53:52.616Z,20.11
2017-12-08T05:54:20.829Z,20.08
2017-12-08T05:54:48.871Z,20.18
2017-12-08T05:55:17.047Z,20.15
2017-12-08T05:55:45.189Z,20.16
2017-12-08T05:56:13.384Z,20.2
2017-12-08T05:56:41.427Z,20.1
2017-12-08T05:57:09.514Z,20.15
2017-12-08T05:57:37.441Z,20.12
2017-12-08T05:58:05.513Z,20.07
2017-12-08T05:58:33.611Z,20.08
2017-12-08T05:59:01.952Z,20.11
2017-12-08T05:59:30.028Z,20.11
2017-12-08T05:59:58.110Z,20.2
2017-12-08T06:00:26.219Z,20.01
2017-12-08T06:00:54.319Z,20.15
2017-12-08T06:01:22.428Z,20.07
2017-12-08T06:01:50.603Z,20.18
2017-12-08T06:02:18.696Z,20.12
2017-12-08T06:02:46.792Z,20.19
2017-12-08T06:03:14.936Z,20.16
2017-12-08T06:03:43.119Z,20.18
2017-12-08T06:04:11.378Z,20.15